sensor_id;sensor_type;location;lat;lon;timestamp;pressure;altitude;pressure_sealevel;temperature;humidity
6565;BME280;3316;44.118;27.258;2023-05-21T00:00:57;100981.84;;;16.93;100.00
6565;BME280;3316;44.118;27.258;2023-05-21T00:03:23;100990.38;;;17.05;100.00
6565;BME280;3316;44.118;27.258;2023-05-21T00:05:51;100986.16;;;16.98;100.00
6565;BME280;3316;44.118;27.258;2023-05-21T00:08:16;100998.63;;;16.96;100.00
6565;BME280;3316;44.118;27.258;2023-05-21T00:10:42;100945.47;;;16.66;100.00
6565;BME280;3316;44.118;27.258;2023-05-21T00:13:07;100979.56;;;16.81;100.00
6565;BME280;3316;44.118;27.258;2023-05-21T00:15:35;100954.91;;;16.76;100.00
6565;BME280;3316;44.118;27.258;2023-05-21T00:18:00;100974.16;;;16.84;100.00
6565;BME280;3316;44.118;27.258;2023-05-21T00:20:26;100966.25;;;16.83;100.00
6565;BME280;3316;44.118;27.258;2023-05-21T00:22:53;100953.03;;;16.80;100.00
6565;BME280;3316;44.118;27.258;2023-05-21T00:25:19;100973.22;;;16.87;100.00
6565;BME280;3316;44.118;27.258;2023-05-21T00:27:44;100967.09;;;16.83;100.00
6565;BME280;3316;44.118;27.258;2023-05-21T00:30:10;100969.72;;;16.85;100.00
6565;BME280;3316;44.118;27.258;2023-05-21T00:32:35;100978.53;;;16.87;100.00
6565;BME280;3316;44.118;27.258;2023-05-21T00:35:01;100963.97;;;16.71;100.00
6565;BME280;3316;44.118;27.258;2023-05-21T00:37:27;100967.63;;;16.67;100.00
6565;BME280;3316;44.118;27.258;2023-05-21T00:39:59;100956.25;;;16.62;100.00
6565;BME280;3316;44.118;27.258;2023-05-21T00:42:24;100967.75;;;16.62;100.00
6565;BME280;3316;44.118;27.258;2023-05-21T00:44:51;100961.78;;;16.54;100.00
6565;BME280;3316;44.118;27.258;2023-05-21T00:47:18;100964.44;;;16.54;100.00
6565;BME280;3316;44.118;27.258;2023-05-21T00:49:46;100966.41;;;16.46;100.00
6565;BME280;3316;44.118;27.258;2023-05-21T00:52:13;100962.03;;;16.45;100.00
6565;BME280;3316;44.118;27.258;2023-05-21T00:54:39;100955.91;;;16.43;100.00
6565;BME280;3316;44.118;27.258;2023-05-21T00:57:05;100953.41;;;16.37;100.00
6565;BME280;3316;44.118;27.258;2023-05-21T00:59:31;100953.41;;;16.37;100.00
6565;BME280;3316;44.118;27.258;2023-05-21T01:01:57;100935.34;;;16.19;100.00
6565;BME280;3316;44.118;27.258;2023-05-21T01:04:29;100957.94;;;16.34;100.00
6565;BME280;3316;44.118;27.258;2023-05-21T01:06:55;100944.75;;;16.31;100.00
6565;BME280;3316;44.118;27.258;2023-05-21T01:09:24;100944.00;;;16.26;100.00
6565;BME280;3316;44.118;27.258;2023-05-21T01:11:50;100939.66;;;16.23;100.00
6565;BME280;3316;44.118;27.258;2023-05-21T01:14:17;100939.44;;;16.31;100.00
6565;BME280;3316;44.118;27.258;2023-05-21T01:16:46;100942.97;;;16.31;100.00
6565;BME280;3316;44.118;27.258;2023-05-21T01:19:15;100929.09;;;16.22;100.00
6565;BME280;3316;44.118;27.258;2023-05-21T01:21:44;100933.38;;;16.26;100.00
6565;BME280;3316;44.118;27.258;2023-05-21T01:24:10;100943.06;;;16.28;100.00
6565;BME280;3316;44.118;27.258;2023-05-21T01:26:36;100943.06;;;16.28;100.00
6565;BME280;3316;44.118;27.258;2023-05-21T01:29:06;100943.75;;;16.35;100.00
6565;BME280;3316;44.118;27.258;2023-05-21T01:34:17;100928.91;;;16.28;100.00
6565;BME280;3316;44.118;27.258;2023-05-21T01:36:48;100938.41;;;16.36;100.00
6565;BME280;3316;44.118;27.258;2023-05-21T01:39:21;100935.00;;;16.31;100.00
6565;BME280;3316;44.118;27.258;2023-05-21T01:41:48;100893.09;;;16.12;100.00
6565;BME280;3316;44.118;27.258;2023-05-21T01:44:15;100932.03;;;16.42;100.00
6565;BME280;3316;44.118;27.258;2023-05-21T01:46:42;100915.50;;;16.32;100.00
6565;BME280;3316;44.118;27.258;2023-05-21T01:49:07;100938.97;;;16.47;100.00
6565;BME280;3316;44.118;27.258;2023-05-21T01:51:34;100932.16;;;16.37;100.00
6565;BME280;3316;44.118;27.258;2023-05-21T01:54:01;100930.38;;;16.38;100.00
6565;BME280;3316;44.118;27.258;2023-05-21T01:56:26;100926.06;;;16.34;100.00
6565;BME280;3316;44.118;27.258;2023-05-21T01:58:56;100913.81;;;16.30;100.00
6565;BME280;3316;44.118;27.258;2023-05-21T02:01:23;100913.94;;;16.25;100.00
6565;BME280;3316;44.118;27.258;2023-05-21T02:03:49;100926.53;;;16.17;100.00
6565;BME280;3316;44.118;27.258;2023-05-21T02:06:14;100927.53;;;16.13;100.00
6565;BME280;3316;44.118;27.258;2023-05-21T02:08:40;100924.91;;;16.13;100.00
6565;BME280;3316;44.118;27.258;2023-05-21T02:11:05;100932.84;;;16.15;100.00
6565;BME280;3316;44.118;27.258;2023-05-21T02:13:31;100924.22;;;16.07;100.00
6565;BME280;3316;44.118;27.258;2023-05-21T02:15:56;100907.75;;;15.94;100.00
6565;BME280;3316;44.118;27.258;2023-05-21T02:18:22;100912.88;;;16.00;100.00
6565;BME280;3316;44.118;27.258;2023-05-21T02:20:47;100906.06;;;15.91;100.00
6565;BME280;3316;44.118;27.258;2023-05-21T02:23:13;100913.22;;;15.88;100.00
6565;BME280;3316;44.118;27.258;2023-05-21T02:25:38;100889.72;;;15.76;100.00
6565;BME280;3316;44.118;27.258;2023-05-21T02:28:04;100907.31;;;15.78;100.00
6565;BME280;3316;44.118;27.258;2023-05-21T02:30:29;100895.03;;;15.74;100.00
6565;BME280;3316;44.118;27.258;2023-05-21T02:32:55;100904.69;;;15.77;100.00
6565;BME280;3316;44.118;27.258;2023-05-21T02:35:22;100899.50;;;15.72;100.00
6565;BME280;3316;44.118;27.258;2023-05-21T02:37:48;100895.97;;;15.73;100.00
6565;BME280;3316;44.118;27.258;2023-05-21T02:40:13;100888.88;;;15.74;100.00
6565;BME280;3316;44.118;27.258;2023-05-21T02:42:39;100898.56;;;15.75;100.00
6565;BME280;3316;44.118;27.258;2023-05-21T02:45:09;100894.09;;;15.77;100.00
6565;BME280;3316;44.118;27.258;2023-05-21T02:47:35;100903.59;;;15.85;100.00
6565;BME280;3316;44.118;27.258;2023-05-21T02:50:04;100892.31;;;15.77;100.00
6565;BME280;3316;44.118;27.258;2023-05-21T02:52:29;100901.94;;;15.80;100.00
6565;BME280;3316;44.118;27.258;2023-05-21T02:54:55;100904.41;;;15.87;100.00
6565;BME280;3316;44.118;27.258;2023-05-21T02:57:20;100900.09;;;15.83;100.00
6565;BME280;3316;44.118;27.258;2023-05-21T02:59:46;100900.94;;;15.84;100.00
6565;BME280;3316;44.118;27.258;2023-05-21T03:02:11;100902.53;;;15.91;100.00
6565;BME280;3316;44.118;27.258;2023-05-21T03:04:37;100900.06;;;15.85;100.00
6565;BME280;3316;44.118;27.258;2023-05-21T03:07:03;100898.13;;;15.91;100.00
6565;BME280;3316;44.118;27.258;2023-05-21T03:09:29;100896.97;;;16.00;100.00
6565;BME280;3316;44.118;27.258;2023-05-21T03:11:54;100905.41;;;16.14;100.00
6565;BME280;3316;44.118;27.258;2023-05-21T03:14:20;100904.41;;;16.18;100.00
6565;BME280;3316;44.118;27.258;2023-05-21T03:16:46;100910.78;;;16.13;100.00
6565;BME280;3316;44.118;27.258;2023-05-21T03:19:11;100910.38;;;16.26;100.00
6565;BME280;3316;44.118;27.258;2023-05-21T03:21:37;100910.91;;;16.37;100.00
6565;BME280;3316;44.118;27.258;2023-05-21T03:24:06;100916.72;;;16.51;100.00
6565;BME280;3316;44.118;27.258;2023-05-21T03:26:32;100927.59;;;16.73;100.00
6565;BME280;3316;44.118;27.258;2023-05-21T03:28:58;100924.38;;;16.89;100.00
6565;BME280;3316;44.118;27.258;2023-05-21T03:31:24;100921.03;;;17.11;100.00
6565;BME280;3316;44.118;27.258;2023-05-21T03:33:50;100920.84;;;17.17;100.00
6565;BME280;3316;44.118;27.258;2023-05-21T03:36:17;100914.56;;;17.45;100.00
6565;BME280;3316;44.118;27.258;2023-05-21T03:38:42;100891.31;;;17.52;100.00
6565;BME280;3316;44.118;27.258;2023-05-21T03:41:08;100922.44;;;17.99;100.00
6565;BME280;3316;44.118;27.258;2023-05-21T03:43:34;100936.53;;;18.26;100.00
6565;BME280;3316;44.118;27.258;2023-05-21T03:45:59;100908.38;;;18.43;100.00
6565;BME280;3316;44.118;27.258;2023-05-21T03:48:25;100940.81;;;18.78;100.00
6565;BME280;3316;44.118;27.258;2023-05-21T03:50:50;100928.88;;;19.09;100.00
6565;BME280;3316;44.118;27.258;2023-05-21T03:53:16;100923.91;;;19.43;100.00
6565;BME280;3316;44.118;27.258;2023-05-21T03:55:42;100921.41;;;19.81;100.00
6565;BME280;3316;44.118;27.258;2023-05-21T03:58:07;100929.06;;;20.08;100.00
6565;BME280;3316;44.118;27.258;2023-05-21T04:00:35;100938.03;;;20.27;100.00
6565;BME280;3316;44.118;27.258;2023-05-21T04:03:02;100937.19;;;20.64;100.00
6565;BME280;3316;44.118;27.258;2023-05-21T04:05:28;100926.72;;;20.60;100.00
6565;BME280;3316;44.118;27.258;2023-05-21T04:07:53;100929.19;;;21.01;100.00
6565;BME280;3316;44.118;27.258;2023-05-21T04:10:19;100942.22;;;21.26;100.00
6565;BME280;3316;44.118;27.258;2023-05-21T04:12:46;100944.47;;;21.52;100.00
6565;BME280;3316;44.118;27.258;2023-05-21T04:15:13;100930.31;;;21.50;100.00
6565;BME280;3316;44.118;27.258;2023-05-21T04:17:42;100947.66;;;21.94;100.00
6565;BME280;3316;44.118;27.258;2023-05-21T04:20:10;100953.03;;;21.94;100.00
6565;BME280;3316;44.118;27.258;2023-05-21T04:22:36;100939.63;;;22.11;100.00
6565;BME280;3316;44.118;27.258;2023-05-21T04:25:02;100945.59;;;22.17;100.00
6565;BME280;3316;44.118;27.258;2023-05-21T04:27:27;100955.22;;;22.21;100.00
6565;BME280;3316;44.118;27.258;2023-05-21T04:29:52;100951.47;;;22.07;100.00
6565;BME280;3316;44.118;27.258;2023-05-21T04:32:18;100943.66;;;22.36;100.00
6565;BME280;3316;44.118;27.258;2023-05-21T04:34:45;100952.69;;;22.67;98.85
6565;BME280;3316;44.118;27.258;2023-05-21T04:37:10;100933.44;;;22.27;99.40
6565;BME280;3316;44.118;27.258;2023-05-21T04:39:36;100955.09;;;21.89;100.00
6565;BME280;3316;44.118;27.258;2023-05-21T04:42:01;100964.38;;;22.17;100.00
6565;BME280;3316;44.118;27.258;2023-05-21T04:44:28;100954.91;;;22.27;100.00
6565;BME280;3316;44.118;27.258;2023-05-21T04:46:53;100957.34;;;22.31;100.00
6565;BME280;3316;44.118;27.258;2023-05-21T04:49:19;100956.94;;;22.71;99.69
6565;BME280;3316;44.118;27.258;2023-05-21T04:51:45;100953.31;;;23.03;95.66
6565;BME280;3316;44.118;27.258;2023-05-21T04:54:11;100955.13;;;23.50;93.37
6565;BME280;3316;44.118;27.258;2023-05-21T04:56:36;100958.84;;;23.47;91.56
6565;BME280;3316;44.118;27.258;2023-05-21T04:59:02;100968.66;;;23.48;93.17
6565;BME280;3316;44.118;27.258;2023-05-21T05:01:28;100956.28;;;23.75;89.57
6565;BME280;3316;44.118;27.258;2023-05-21T05:03:54;100961.34;;;23.50;91.11
6565;BME280;3316;44.118;27.258;2023-05-21T05:06:19;100972.47;;;23.44;91.56
6565;BME280;3316;44.118;27.258;2023-05-21T05:08:45;100965.25;;;22.98;93.50
6565;BME280;3316;44.118;27.258;2023-05-21T05:11:11;100973.91;;;22.22;98.66
6565;BME280;3316;44.118;27.258;2023-05-21T05:13:38;100955.25;;;21.86;100.00
6565;BME280;3316;44.118;27.258;2023-05-21T05:16:04;100974.13;;;21.66;100.00
6565;BME280;3316;44.118;27.258;2023-05-21T05:18:31;100957.28;;;21.28;100.00
6565;BME280;3316;44.118;27.258;2023-05-21T05:20:58;100956.28;;;21.48;100.00
6565;BME280;3316;44.118;27.258;2023-05-21T05:23:23;100968.81;;;21.48;100.00
6565;BME280;3316;44.118;27.258;2023-05-21T05:25:49;100964.50;;;21.26;100.00
6565;BME280;3316;44.118;27.258;2023-05-21T05:28:14;100941.22;;;21.28;100.00
6565;BME280;3316;44.118;27.258;2023-05-21T05:30:39;100971.13;;;21.55;100.00
6565;BME280;3316;44.118;27.258;2023-05-21T05:33:05;100967.88;;;21.66;100.00
6565;BME280;3316;44.118;27.258;2023-05-21T05:35:30;100962.50;;;21.84;100.00
6565;BME280;3316;44.118;27.258;2023-05-21T05:37:57;100972.81;;;22.09;100.00
6565;BME280;3316;44.118;27.258;2023-05-21T05:40:22;100977.16;;;22.11;100.00
6565;BME280;3316;44.118;27.258;2023-05-21T05:42:47;100978.41;;;22.04;100.00
6565;BME280;3316;44.118;27.258;2023-05-21T05:45:13;100974.53;;;21.93;100.00
6565;BME280;3316;44.118;27.258;2023-05-21T05:47:39;100965.59;;;21.94;100.00
6565;BME280;3316;44.118;27.258;2023-05-21T05:50:05;100969.59;;;22.20;100.00
6565;BME280;3316;44.118;27.258;2023-05-21T05:52:30;100959.38;;;22.26;100.00
6565;BME280;3316;44.118;27.258;2023-05-21T05:54:56;100968.91;;;22.32;100.00
6565;BME280;3316;44.118;27.258;2023-05-21T05:57:21;100966.38;;;22.46;100.00
6565;BME280;3316;44.118;27.258;2023-05-21T05:59:46;100975.31;;;22.29;100.00
6565;BME280;3316;44.118;27.258;2023-05-21T06:02:12;100981.47;;;22.31;100.00
6565;BME280;3316;44.118;27.258;2023-05-21T06:04:37;100963.50;;;22.33;100.00
6565;BME280;3316;44.118;27.258;2023-05-21T06:07:03;100973.28;;;22.67;100.00
6565;BME280;3316;44.118;27.258;2023-05-21T06:09:28;100973.03;;;22.71;100.00
6565;BME280;3316;44.118;27.258;2023-05-21T06:11:54;100967.69;;;22.87;100.00
6565;BME280;3316;44.118;27.258;2023-05-21T06:14:20;100969.50;;;23.02;99.19
6565;BME280;3316;44.118;27.258;2023-05-21T06:16:45;100971.69;;;23.11;99.70
6565;BME280;3316;44.118;27.258;2023-05-21T06:19:11;100972.53;;;23.27;98.46
6565;BME280;3316;44.118;27.258;2023-05-21T06:21:36;100968.69;;;23.33;97.87
6565;BME280;3316;44.118;27.258;2023-05-21T06:24:01;100967.09;;;23.29;97.92
6565;BME280;3316;44.118;27.258;2023-05-21T06:26:27;100959.97;;;23.12;98.24
6565;BME280;3316;44.118;27.258;2023-05-21T06:28:52;100965.44;;;22.95;98.81
6565;BME280;3316;44.118;27.258;2023-05-21T06:31:18;100956.09;;;23.02;99.28
6565;BME280;3316;44.118;27.258;2023-05-21T06:33:47;100960.84;;;23.28;98.23
6565;BME280;3316;44.118;27.258;2023-05-21T06:36:13;100955.91;;;23.21;98.58
6565;BME280;3316;44.118;27.258;2023-05-21T06:38:39;100949.13;;;23.29;96.97
6565;BME280;3316;44.118;27.258;2023-05-21T06:41:05;100947.25;;;23.47;96.65
6565;BME280;3316;44.118;27.258;2023-05-21T06:43:30;100933.88;;;23.91;94.35
6565;BME280;3316;44.118;27.258;2023-05-21T06:45:56;100940.94;;;24.21;89.82
6565;BME280;3316;44.118;27.258;2023-05-21T06:48:21;100937.13;;;24.53;87.15
6565;BME280;3316;44.118;27.258;2023-05-21T06:50:47;100944.81;;;24.45;86.11
6565;BME280;3316;44.118;27.258;2023-05-21T06:53:12;100891.56;;;24.50;84.84
6565;BME280;3316;44.118;27.258;2023-05-21T06:55:40;100940.88;;;24.79;84.11
6565;BME280;3316;44.118;27.258;2023-05-21T06:58:09;100936.03;;;24.56;82.55
6565;BME280;3316;44.118;27.258;2023-05-21T07:00:35;100883.91;;;24.16;84.01
6565;BME280;3316;44.118;27.258;2023-05-21T07:03:00;100936.16;;;24.26;83.72
6565;BME280;3316;44.118;27.258;2023-05-21T07:05:26;100925.38;;;24.40;82.54
6565;BME280;3316;44.118;27.258;2023-05-21T07:07:51;100930.88;;;24.67;80.11
6565;BME280;3316;44.118;27.258;2023-05-21T07:10:17;100928.53;;;24.89;77.20
6565;BME280;3316;44.118;27.258;2023-05-21T07:12:42;100930.69;;;25.11;76.68
6565;BME280;3316;44.118;27.258;2023-05-21T07:15:08;100915.25;;;25.41;75.84
6565;BME280;3316;44.118;27.258;2023-05-21T07:17:33;100916.28;;;25.12;75.93
6565;BME280;3316;44.118;27.258;2023-05-21T07:19:59;100913.00;;;25.47;75.13
6565;BME280;3316;44.118;27.258;2023-05-21T07:22:24;100917.09;;;25.26;75.45
6565;BME280;3316;44.118;27.258;2023-05-21T07:24:50;100881.25;;;25.38;73.65
6565;BME280;3316;44.118;27.258;2023-05-21T07:27:15;100905.31;;;25.81;70.75
6565;BME280;3316;44.118;27.258;2023-05-21T07:29:40;100907.47;;;26.01;69.14
6565;BME280;3316;44.118;27.258;2023-05-21T07:32:06;100907.06;;;25.42;70.33
6565;BME280;3316;44.118;27.258;2023-05-21T07:34:31;100910.28;;;25.21;71.77
6565;BME280;3316;44.118;27.258;2023-05-21T07:36:57;100906.66;;;25.61;71.12
6565;BME280;3316;44.118;27.258;2023-05-21T07:39:22;100894.34;;;25.44;69.99
6565;BME280;3316;44.118;27.258;2023-05-21T07:41:48;100907.75;;;25.58;70.84
6565;BME280;3316;44.118;27.258;2023-05-21T07:44:13;100902.28;;;25.73;69.15
6565;BME280;3316;44.118;27.258;2023-05-21T07:46:38;100902.28;;;25.85;65.44
6565;BME280;3316;44.118;27.258;2023-05-21T07:49:04;100909.75;;;25.82;66.06
6565;BME280;3316;44.118;27.258;2023-05-21T07:51:30;100911.69;;;26.05;65.33
6565;BME280;3316;44.118;27.258;2023-05-21T07:53:55;100900.00;;;26.06;67.07
6565;BME280;3316;44.118;27.258;2023-05-21T07:56:21;100910.78;;;26.31;65.24
6565;BME280;3316;44.118;27.258;2023-05-21T07:58:47;100899.97;;;26.31;64.72
6565;BME280;3316;44.118;27.258;2023-05-21T08:01:12;100901.78;;;26.56;64.20
6565;BME280;3316;44.118;27.258;2023-05-21T08:03:38;100901.38;;;26.11;64.76
6565;BME280;3316;44.118;27.258;2023-05-21T08:06:03;100897.56;;;26.01;66.16
6565;BME280;3316;44.118;27.258;2023-05-21T08:08:29;100899.66;;;26.23;65.47
6565;BME280;3316;44.118;27.258;2023-05-21T08:10:54;100910.94;;;26.53;63.47
6565;BME280;3316;44.118;27.258;2023-05-21T08:13:20;100896.66;;;26.76;62.96
6565;BME280;3316;44.118;27.258;2023-05-21T08:15:46;100851.50;;;26.42;62.34
6565;BME280;3316;44.118;27.258;2023-05-21T08:18:12;100887.47;;;26.17;62.13
6565;BME280;3316;44.118;27.258;2023-05-21T08:20:37;100891.66;;;26.34;62.05
6565;BME280;3316;44.118;27.258;2023-05-21T08:23:03;100885.88;;;26.76;60.95
6565;BME280;3316;44.118;27.258;2023-05-21T08:25:28;100891.22;;;27.01;59.75
6565;BME280;3316;44.118;27.258;2023-05-21T08:27:54;100841.19;;;26.60;58.66
6565;BME280;3316;44.118;27.258;2023-05-21T08:30:20;100892.34;;;27.10;59.49
6565;BME280;3316;44.118;27.258;2023-05-21T08:32:46;100892.72;;;27.53;56.95
6565;BME280;3316;44.118;27.258;2023-05-21T08:35:11;100888.50;;;27.49;57.56
6565;BME280;3316;44.118;27.258;2023-05-21T08:37:37;100895.59;;;27.97;56.31
6565;BME280;3316;44.118;27.258;2023-05-21T08:40:03;100888.84;;;28.02;55.84
6565;BME280;3316;44.118;27.258;2023-05-21T08:42:41;100895.94;;;28.03;55.88
6565;BME280;3316;44.118;27.258;2023-05-21T08:45:11;100898.16;;;27.64;55.54
6565;BME280;3316;44.118;27.258;2023-05-21T08:47:40;100897.44;;;27.96;55.13
6565;BME280;3316;44.118;27.258;2023-05-21T08:50:08;100889.50;;;27.93;54.02
6565;BME280;3316;44.118;27.258;2023-05-21T08:52:34;100887.22;;;28.00;54.24
6565;BME280;3316;44.118;27.258;2023-05-21T08:55:01;100901.88;;;28.08;53.83
6565;BME280;3316;44.118;27.258;2023-05-21T08:57:29;100895.75;;;28.40;52.49
6565;BME280;3316;44.118;27.258;2023-05-21T08:59:56;100912.13;;;28.60;51.65
6565;BME280;3316;44.118;27.258;2023-05-21T09:02:21;100903.41;;;28.68;51.27
6565;BME280;3316;44.118;27.258;2023-05-21T09:04:50;100910.88;;;28.97;50.65
6565;BME280;3316;44.118;27.258;2023-05-21T09:07:24;100909.25;;;29.17;49.03
6565;BME280;3316;44.118;27.258;2023-05-21T09:10:01;100906.56;;;28.95;49.86
6565;BME280;3316;44.118;27.258;2023-05-21T09:12:27;100907.22;;;28.76;48.87
6565;BME280;3316;44.118;27.258;2023-05-21T09:14:54;100919.66;;;28.57;50.00
6565;BME280;3316;44.118;27.258;2023-05-21T09:17:21;100920.13;;;28.51;47.92
6565;BME280;3316;44.118;27.258;2023-05-21T09:22:35;100912.63;;;28.54;48.33
6565;BME280;3316;44.118;27.258;2023-05-21T09:25:05;100915.81;;;28.37;47.96
6565;BME280;3316;44.118;27.258;2023-05-21T09:27:32;100913.69;;;28.52;46.73
6565;BME280;3316;44.118;27.258;2023-05-21T09:29:58;100917.03;;;28.33;45.66
6565;BME280;3316;44.118;27.258;2023-05-21T09:32:23;100908.56;;;27.92;46.23
6565;BME280;3316;44.118;27.258;2023-05-21T09:34:49;100916.84;;;28.01;46.20
6565;BME280;3316;44.118;27.258;2023-05-21T09:37:15;100916.53;;;27.93;46.67
6565;BME280;3316;44.118;27.258;2023-05-21T09:39:40;100908.25;;;28.07;47.71
6565;BME280;3316;44.118;27.258;2023-05-21T09:42:06;100903.72;;;28.19;48.23
6565;BME280;3316;44.118;27.258;2023-05-21T09:44:33;100902.16;;;28.28;48.60
6565;BME280;3316;44.118;27.258;2023-05-21T09:46:59;100911.25;;;28.82;48.05
6565;BME280;3316;44.118;27.258;2023-05-21T09:49:26;100903.28;;;28.80;46.67
6565;BME280;3316;44.118;27.258;2023-05-21T09:51:56;100918.91;;;28.88;46.97
6565;BME280;3316;44.118;27.258;2023-05-21T09:54:22;100916.03;;;28.34;47.10
6565;BME280;3316;44.118;27.258;2023-05-21T09:56:50;100903.31;;;28.01;47.80
6565;BME280;3316;44.118;27.258;2023-05-21T09:59:16;100897.91;;;28.01;48.06
6565;BME280;3316;44.118;27.258;2023-05-21T10:01:42;100907.03;;;28.23;46.67
6565;BME280;3316;44.118;27.258;2023-05-21T10:04:08;100897.97;;;28.24;46.50
6565;BME280;3316;44.118;27.258;2023-05-21T10:06:37;100893.28;;;28.26;44.85
6565;BME280;3316;44.118;27.258;2023-05-21T10:09:09;100881.72;;;28.24;45.76
6565;BME280;3316;44.118;27.258;2023-05-21T10:11:35;100897.34;;;28.42;44.53
6565;BME280;3316;44.118;27.258;2023-05-21T10:14:06;100851.44;;;28.41;43.71
6565;BME280;3316;44.118;27.258;2023-05-21T10:16:33;100916.72;;;28.71;43.51
6565;BME280;3316;44.118;27.258;2023-05-21T10:18:59;100908.16;;;28.42;41.35
6565;BME280;3316;44.118;27.258;2023-05-21T10:21:29;100879.13;;;27.65;40.40
6565;BME280;3316;44.118;27.258;2023-05-21T10:23:56;100891.16;;;27.61;41.55
6565;BME280;3316;44.118;27.258;2023-05-21T10:26:22;100905.41;;;27.63;40.96
6565;BME280;3316;44.118;27.258;2023-05-21T10:28:49;100907.78;;;27.68;42.40
6565;BME280;3316;44.118;27.258;2023-05-21T10:31:15;100907.19;;;27.75;40.40
6565;BME280;3316;44.118;27.258;2023-05-21T10:33:42;100898.00;;;27.54;40.45
6565;BME280;3316;44.118;27.258;2023-05-21T10:36:08;100917.03;;;27.53;39.46
6565;BME280;3316;44.118;27.258;2023-05-21T10:38:35;100912.19;;;27.34;40.13
6565;BME280;3316;44.118;27.258;2023-05-21T10:41:01;100904.91;;;27.11;40.87
6565;BME280;3316;44.118;27.258;2023-05-21T10:46:59;100908.13;;;27.40;42.10
6565;BME280;3316;44.118;27.258;2023-05-21T11:00:16;100869.97;;;27.44;41.54
6565;BME280;3316;44.118;27.258;2023-05-21T11:02:45;100904.44;;;27.99;41.72
6565;BME280;3316;44.118;27.258;2023-05-21T11:05:11;100896.59;;;27.72;41.27
6565;BME280;3316;44.118;27.258;2023-05-21T11:07:52;100909.31;;;27.94;41.63
6565;BME280;3316;44.118;27.258;2023-05-21T11:10:36;100907.69;;;27.80;40.31
6565;BME280;3316;44.118;27.258;2023-05-21T11:13:13;100901.19;;;27.83;39.20
6565;BME280;3316;44.118;27.258;2023-05-21T11:21:05;100904.03;;;27.10;41.27
6565;BME280;3316;44.118;27.258;2023-05-21T11:26:29;100904.56;;;27.39;41.67
6565;BME280;3316;44.118;27.258;2023-05-21T11:31:31;100911.06;;;26.64;42.37
6565;BME280;3316;44.118;27.258;2023-05-21T11:34:18;100909.75;;;26.70;43.78
6565;BME280;3316;44.118;27.258;2023-05-21T11:36:45;100876.84;;;26.39;43.63
6565;BME280;3316;44.118;27.258;2023-05-21T11:39:17;100903.00;;;26.39;44.96
6565;BME280;3316;44.118;27.258;2023-05-21T11:42:00;100914.06;;;26.72;44.64
6565;BME280;3316;44.118;27.258;2023-05-21T11:44:46;100908.22;;;26.66;45.56
6565;BME280;3316;44.118;27.258;2023-05-21T11:47:13;100898.97;;;26.57;45.36
6565;BME280;3316;44.118;27.258;2023-05-21T11:49:45;100908.47;;;26.50;44.69
6565;BME280;3316;44.118;27.258;2023-05-21T11:52:12;100888.63;;;26.38;44.67
6565;BME280;3316;44.118;27.258;2023-05-21T11:54:43;100882.69;;;26.46;44.54
6565;BME280;3316;44.118;27.258;2023-05-21T11:57:11;100882.56;;;26.60;45.26
6565;BME280;3316;44.118;27.258;2023-05-21T11:59:39;100873.25;;;26.64;44.92
6565;BME280;3316;44.118;27.258;2023-05-21T12:02:05;100862.50;;;27.11;44.50
6565;BME280;3316;44.118;27.258;2023-05-21T12:04:31;100876.91;;;27.36;43.19
6565;BME280;3316;44.118;27.258;2023-05-21T12:07:10;100882.13;;;27.50;43.22
6565;BME280;3316;44.118;27.258;2023-05-21T12:09:44;100846.66;;;27.30;42.63
6565;BME280;3316;44.118;27.258;2023-05-21T12:12:11;100872.38;;;27.82;41.92
6565;BME280;3316;44.118;27.258;2023-05-21T12:14:38;100854.66;;;27.67;41.73
6565;BME280;3316;44.118;27.258;2023-05-21T12:17:05;100872.00;;;28.10;42.73
6565;BME280;3316;44.118;27.258;2023-05-21T12:19:35;100866.94;;;28.05;42.24
6565;BME280;3316;44.118;27.258;2023-05-21T12:22:05;100867.09;;;28.37;42.15
6565;BME280;3316;44.118;27.258;2023-05-21T12:24:31;100845.38;;;27.93;41.38
6565;BME280;3316;44.118;27.258;2023-05-21T12:26:58;100855.94;;;27.85;41.76
6565;BME280;3316;44.118;27.258;2023-05-21T12:29:36;100854.19;;;27.62;42.33
6565;BME280;3316;44.118;27.258;2023-05-21T12:32:03;100859.03;;;27.46;42.20
6565;BME280;3316;44.118;27.258;2023-05-21T12:39:42;100846.88;;;27.51;42.32
6565;BME280;3316;44.118;27.258;2023-05-21T12:42:08;100827.34;;;27.48;42.72
6565;BME280;3316;44.118;27.258;2023-05-21T12:44:34;100832.69;;;27.37;42.53
6565;BME280;3316;44.118;27.258;2023-05-21T12:46:59;100840.25;;;27.31;43.04
6565;BME280;3316;44.118;27.258;2023-05-21T12:49:41;100832.72;;;27.13;43.65
6565;BME280;3316;44.118;27.258;2023-05-21T12:52:13;100822.56;;;27.04;44.04
6565;BME280;3316;44.118;27.258;2023-05-21T12:54:40;100829.31;;;26.98;43.92
6565;BME280;3316;44.118;27.258;2023-05-21T12:57:14;100826.72;;;26.97;44.40
6565;BME280;3316;44.118;27.258;2023-05-21T12:59:52;100830.84;;;27.13;43.64
6565;BME280;3316;44.118;27.258;2023-05-21T13:05:06;100824.19;;;27.06;42.64
6565;BME280;3316;44.118;27.258;2023-05-21T13:07:34;100816.06;;;26.95;43.47
6565;BME280;3316;44.118;27.258;2023-05-21T13:10:01;100823.88;;;26.87;42.85
6565;BME280;3316;44.118;27.258;2023-05-21T13:12:28;100822.41;;;26.94;42.97
6565;BME280;3316;44.118;27.258;2023-05-21T13:14:56;100807.38;;;26.79;43.44
6565;BME280;3316;44.118;27.258;2023-05-21T13:17:22;100808.94;;;27.05;43.78
6565;BME280;3316;44.118;27.258;2023-05-21T13:22:33;100824.97;;;27.19;44.22
6565;BME280;3316;44.118;27.258;2023-05-21T13:25:00;100808.03;;;27.17;43.40
6565;BME280;3316;44.118;27.258;2023-05-21T13:27:26;100811.19;;;27.11;43.00
6565;BME280;3316;44.118;27.258;2023-05-21T13:29:51;100816.44;;;27.02;42.83
6565;BME280;3316;44.118;27.258;2023-05-21T13:32:17;100797.25;;;26.70;43.46
6565;BME280;3316;44.118;27.258;2023-05-21T13:34:43;100801.34;;;26.63;43.65